sensor_id;sensor_type;location;lat;lon;timestamp;pressure;altitude;pressure_sealevel;temperature;humidity
7660;BME280;3872;47.902;8.162;2023-11-22T00:01:10;92006.09;;;9.77;89.31
7660;BME280;3872;47.902;8.162;2023-11-22T00:03:37;91999.81;;;9.54;92.23
7660;BME280;3872;47.902;8.162;2023-11-22T00:06:05;91999.06;;;9.72;90.42
7660;BME280;3872;47.902;8.162;2023-11-22T00:08:33;92005.81;;;9.78;90.59
7660;BME280;3872;47.902;8.162;2023-11-22T00:10:59;92009.63;;;9.86;89.19
7660;BME280;3872;47.902;8.162;2023-11-22T00:13:26;92010.41;;;9.87;88.65
7660;BME280;3872;47.902;8.162;2023-11-22T00:15:54;92010.75;;;9.99;86.92
7660;BME280;3872;47.902;8.162;2023-11-22T00:18:20;92003.50;;;9.91;86.84
7660;BME280;3872;47.902;8.162;2023-11-22T00:20:48;92005.91;;;10.06;85.74
7660;BME280;3872;47.902;8.162;2023-11-22T00:23:14;92002.47;;;9.73;89.62
7660;BME280;3872;47.902;8.162;2023-11-22T00:25:41;92010.97;;;9.46;93.57
7660;BME280;3872;47.902;8.162;2023-11-22T00:28:07;92009.34;;;9.50;92.28
7660;BME280;3872;47.902;8.162;2023-11-22T00:30:36;92012.97;;;9.54;90.76
7660;BME280;3872;47.902;8.162;2023-11-22T00:33:04;92013.25;;;9.53;90.23
7660;BME280;3872;47.902;8.162;2023-11-22T00:35:31;92011.63;;;9.57;89.29
7660;BME280;3872;47.902;8.162;2023-11-22T00:37:57;92012.03;;;9.45;90.43
7660;BME280;3872;47.902;8.162;2023-11-22T00:40:24;92022.00;;;9.24;94.29
7660;BME280;3872;47.902;8.162;2023-11-22T00:42:51;92013.31;;;9.29;93.84
7660;BME280;3872;47.902;8.162;2023-11-22T00:45:18;92015.06;;;9.33;93.82
7660;BME280;3872;47.902;8.162;2023-11-22T00:47:45;92019.63;;;9.47;92.98
7660;BME280;3872;47.902;8.162;2023-11-22T00:50:13;92019.06;;;9.07;97.88
7660;BME280;3872;47.902;8.162;2023-11-22T00:52:39;92019.09;;;9.26;95.22
7660;BME280;3872;47.902;8.162;2023-11-22T00:55:10;92020.97;;;8.78;100.00
7660;BME280;3872;47.902;8.162;2023-11-22T00:57:37;92025.72;;;8.47;100.00
7660;BME280;3872;47.902;8.162;2023-11-22T01:00:05;92026.06;;;8.40;100.00
7660;BME280;3872;47.902;8.162;2023-11-22T01:02:34;92036.63;;;8.25;100.00
7660;BME280;3872;47.902;8.162;2023-11-22T01:05:04;92026.34;;;8.91;100.00
7660;BME280;3872;47.902;8.162;2023-11-22T01:07:33;92023.97;;;8.90;100.00
7660;BME280;3872;47.902;8.162;2023-11-22T01:10:01;92030.47;;;8.97;100.00
7660;BME280;3872;47.902;8.162;2023-11-22T01:12:27;92026.81;;;8.70;100.00
7660;BME280;3872;47.902;8.162;2023-11-22T01:14:54;92035.94;;;8.77;100.00
7660;BME280;3872;47.902;8.162;2023-11-22T01:17:20;92036.13;;;8.86;100.00
7660;BME280;3872;47.902;8.162;2023-11-22T01:19:47;92037.94;;;8.85;100.00
7660;BME280;3872;47.902;8.162;2023-11-22T01:22:13;92039.19;;;8.93;100.00
7660;BME280;3872;47.902;8.162;2023-11-22T01:24:41;92034.38;;;9.00;100.00
7660;BME280;3872;47.902;8.162;2023-11-22T01:27:08;92026.56;;;8.71;100.00
7660;BME280;3872;47.902;8.162;2023-11-22T01:29:35;92042.19;;;8.81;100.00
7660;BME280;3872;47.902;8.162;2023-11-22T01:32:01;92035.41;;;8.75;100.00
7660;BME280;3872;47.902;8.162;2023-11-22T01:34:28;92042.41;;;8.85;100.00
7660;BME280;3872;47.902;8.162;2023-11-22T01:36:55;92036.31;;;8.89;100.00
7660;BME280;3872;47.902;8.162;2023-11-22T01:39:23;92032.81;;;8.99;100.00
7660;BME280;3872;47.902;8.162;2023-11-22T01:41:51;92037.47;;;9.07;99.59
7660;BME280;3872;47.902;8.162;2023-11-22T01:44:17;92039.28;;;9.07;99.13
7660;BME280;3872;47.902;8.162;2023-11-22T01:46:45;92032.00;;;8.75;100.00
7660;BME280;3872;47.902;8.162;2023-11-22T01:49:12;92038.94;;;8.89;100.00
7660;BME280;3872;47.902;8.162;2023-11-22T01:51:40;92042.78;;;9.02;99.94
7660;BME280;3872;47.902;8.162;2023-11-22T01:54:08;92035.66;;;9.02;99.80
7660;BME280;3872;47.902;8.162;2023-11-22T01:56:37;92041.25;;;8.96;100.00
7660;BME280;3872;47.902;8.162;2023-11-22T01:59:06;92040.16;;;9.02;100.00
7660;BME280;3872;47.902;8.162;2023-11-22T02:01:34;92045.66;;;8.77;100.00
7660;BME280;3872;47.902;8.162;2023-11-22T02:03:59;92050.75;;;8.34;100.00
7660;BME280;3872;47.902;8.162;2023-11-22T02:06:26;92055.19;;;8.91;100.00
7660;BME280;3872;47.902;8.162;2023-11-22T02:08:54;92042.56;;;9.17;100.00
7660;BME280;3872;47.902;8.162;2023-11-22T02:11:21;92050.00;;;9.10;100.00
7660;BME280;3872;47.902;8.162;2023-11-22T02:13:49;92045.09;;;9.03;100.00
7660;BME280;3872;47.902;8.162;2023-11-22T02:16:18;92044.66;;;8.96;100.00
7660;BME280;3872;47.902;8.162;2023-11-22T02:18:46;92046.78;;;8.94;100.00
7660;BME280;3872;47.902;8.162;2023-11-22T02:21:13;92044.47;;;9.12;100.00
7660;BME280;3872;47.902;8.162;2023-11-22T02:23:42;92051.38;;;9.08;100.00
7660;BME280;3872;47.902;8.162;2023-11-22T02:26:09;92049.22;;;8.86;100.00
7660;BME280;3872;47.902;8.162;2023-11-22T02:28:35;92049.19;;;8.62;100.00
7660;BME280;3872;47.902;8.162;2023-11-22T02:31:03;92049.63;;;8.98;100.00
7660;BME280;3872;47.902;8.162;2023-11-22T02:33:30;92043.47;;;8.84;100.00
7660;BME280;3872;47.902;8.162;2023-11-22T02:35:57;92046.16;;;8.79;100.00
7660;BME280;3872;47.902;8.162;2023-11-22T02:38:24;92041.31;;;9.15;100.00
7660;BME280;3872;47.902;8.162;2023-11-22T02:40:52;92033.97;;;9.35;99.38
7660;BME280;3872;47.902;8.162;2023-11-22T02:43:19;92047.25;;;9.44;96.63
7660;BME280;3872;47.902;8.162;2023-11-22T02:45:48;92045.78;;;9.14;98.34
7660;BME280;3872;47.902;8.162;2023-11-22T02:48:14;92051.94;;;8.13;100.00
7660;BME280;3872;47.902;8.162;2023-11-22T02:50:41;92054.34;;;8.09;100.00
7660;BME280;3872;47.902;8.162;2023-11-22T02:53:08;92062.75;;;8.06;100.00
7660;BME280;3872;47.902;8.162;2023-11-22T02:55:35;92063.25;;;9.00;100.00
7660;BME280;3872;47.902;8.162;2023-11-22T02:58:03;92057.84;;;9.15;100.00
7660;BME280;3872;47.902;8.162;2023-11-22T03:00:30;92066.63;;;9.48;99.02
7660;BME280;3872;47.902;8.162;2023-11-22T03:02:59;92061.81;;;9.55;98.02
7660;BME280;3872;47.902;8.162;2023-11-22T03:05:26;92067.22;;;8.69;100.00
7660;BME280;3872;47.902;8.162;2023-11-22T03:07:54;92065.44;;;8.93;100.00
7660;BME280;3872;47.902;8.162;2023-11-22T03:10:21;92065.47;;;9.12;100.00
7660;BME280;3872;47.902;8.162;2023-11-22T03:12:52;92064.88;;;9.20;100.00
7660;BME280;3872;47.902;8.162;2023-11-22T03:15:21;92069.47;;;9.09;100.00
7660;BME280;3872;47.902;8.162;2023-11-22T03:17:47;92067.72;;;9.23;100.00
7660;BME280;3872;47.902;8.162;2023-11-22T03:20:14;92073.81;;;9.42;98.03
7660;BME280;3872;47.902;8.162;2023-11-22T03:22:41;92069.16;;;9.34;99.61
7660;BME280;3872;47.902;8.162;2023-11-22T03:25:09;92069.06;;;9.21;100.00
7660;BME280;3872;47.902;8.162;2023-11-22T03:27:36;92086.13;;;9.23;100.00
7660;BME280;3872;47.902;8.162;2023-11-22T03:30:04;92090.19;;;8.82;100.00
7660;BME280;3872;47.902;8.162;2023-11-22T03:32:37;92099.59;;;8.88;100.00
7660;BME280;3872;47.902;8.162;2023-11-22T03:35:05;92096.25;;;9.06;100.00
7660;BME280;3872;47.902;8.162;2023-11-22T03:37:32;92100.22;;;9.03;100.00
7660;BME280;3872;47.902;8.162;2023-11-22T03:39:58;92107.22;;;9.13;100.00
7660;BME280;3872;47.902;8.162;2023-11-22T03:42:25;92108.91;;;8.41;100.00
7660;BME280;3872;47.902;8.162;2023-11-22T03:44:52;92105.78;;;8.00;100.00
7660;BME280;3872;47.902;8.162;2023-11-22T03:47:19;92093.91;;;8.81;100.00
7660;BME280;3872;47.902;8.162;2023-11-22T03:49:47;92092.50;;;9.12;100.00
7660;BME280;3872;47.902;8.162;2023-11-22T03:52:14;92097.94;;;9.21;100.00
7660;BME280;3872;47.902;8.162;2023-11-22T03:54:41;92107.94;;;9.19;100.00
7660;BME280;3872;47.902;8.162;2023-11-22T03:57:07;92105.09;;;9.15;100.00
7660;BME280;3872;47.902;8.162;2023-11-22T03:59:34;92103.34;;;9.06;100.00
7660;BME280;3872;47.902;8.162;2023-11-22T04:02:01;92099.03;;;9.62;97.09
7660;BME280;3872;47.902;8.162;2023-11-22T04:04:29;92100.22;;;9.51;96.02
7660;BME280;3872;47.902;8.162;2023-11-22T04:06:57;92099.34;;;9.37;98.72
7660;BME280;3872;47.902;8.162;2023-11-22T04:09:23;92093.84;;;9.33;98.88
7660;BME280;3872;47.902;8.162;2023-11-22T04:11:50;92101.28;;;9.50;96.23
7660;BME280;3872;47.902;8.162;2023-11-22T04:14:17;92100.09;;;9.61;94.57
7660;BME280;3872;47.902;8.162;2023-11-22T04:16:45;92104.09;;;9.59;94.44
7660;BME280;3872;47.902;8.162;2023-11-22T04:19:12;92112.72;;;9.59;94.20
7660;BME280;3872;47.902;8.162;2023-11-22T04:21:38;92108.75;;;9.38;96.94
7660;BME280;3872;47.902;8.162;2023-11-22T04:24:07;92117.06;;;9.50;96.42
7660;BME280;3872;47.902;8.162;2023-11-22T04:26:34;92124.47;;;9.19;100.00
7660;BME280;3872;47.902;8.162;2023-11-22T04:29:00;92122.84;;;9.47;98.84
7660;BME280;3872;47.902;8.162;2023-11-22T04:31:27;92121.25;;;9.51;97.50
7660;BME280;3872;47.902;8.162;2023-11-22T04:33:53;92127.88;;;9.20;100.00
7660;BME280;3872;47.902;8.162;2023-11-22T04:36:23;92126.44;;;9.56;99.38
7660;BME280;3872;47.902;8.162;2023-11-22T04:38:49;92136.09;;;9.61;96.75
7660;BME280;3872;47.902;8.162;2023-11-22T04:41:17;92124.31;;;9.34;100.00
7660;BME280;3872;47.902;8.162;2023-11-22T04:43:44;92129.38;;;9.26;100.00
7660;BME280;3872;47.902;8.162;2023-11-22T04:46:11;92135.56;;;9.16;100.00
7660;BME280;3872;47.902;8.162;2023-11-22T04:48:38;92128.53;;;9.07;100.00
7660;BME280;3872;47.902;8.162;2023-11-22T04:51:05;92141.69;;;8.44;100.00
7660;BME280;3872;47.902;8.162;2023-11-22T04:53:32;92151.50;;;7.74;100.00
7660;BME280;3872;47.902;8.162;2023-11-22T04:55:58;92148.84;;;7.79;100.00
7660;BME280;3872;47.902;8.162;2023-11-22T04:58:28;92150.94;;;7.77;100.00
7660;BME280;3872;47.902;8.162;2023-11-22T05:00:56;92151.72;;;7.82;100.00
7660;BME280;3872;47.902;8.162;2023-11-22T05:03:23;92159.47;;;7.43;100.00
7660;BME280;3872;47.902;8.162;2023-11-22T05:05:50;92163.44;;;7.26;100.00
7660;BME280;3872;47.902;8.162;2023-11-22T05:08:16;92166.69;;;7.72;100.00
7660;BME280;3872;47.902;8.162;2023-11-22T05:10:43;92166.38;;;7.09;100.00
7660;BME280;3872;47.902;8.162;2023-11-22T05:13:09;92184.19;;;6.77;100.00
7660;BME280;3872;47.902;8.162;2023-11-22T05:15:37;92193.59;;;6.78;100.00
7660;BME280;3872;47.902;8.162;2023-11-22T05:18:04;92189.69;;;6.75;100.00
7660;BME280;3872;47.902;8.162;2023-11-22T05:20:31;92192.03;;;6.87;100.00
7660;BME280;3872;47.902;8.162;2023-11-22T05:22:58;92188.41;;;6.52;100.00
7660;BME280;3872;47.902;8.162;2023-11-22T05:25:24;92187.00;;;7.31;100.00
7660;BME280;3872;47.902;8.162;2023-11-22T05:27:51;92194.94;;;6.80;100.00
7660;BME280;3872;47.902;8.162;2023-11-22T05:30:17;92201.19;;;6.84;100.00
7660;BME280;3872;47.902;8.162;2023-11-22T05:32:45;92203.00;;;6.48;100.00
7660;BME280;3872;47.902;8.162;2023-11-22T05:35:12;92199.09;;;6.56;100.00
7660;BME280;3872;47.902;8.162;2023-11-22T05:37:38;92206.16;;;6.50;100.00
7660;BME280;3872;47.902;8.162;2023-11-22T05:40:06;92209.28;;;6.47;100.00
7660;BME280;3872;47.902;8.162;2023-11-22T05:42:34;92206.94;;;7.17;100.00
7660;BME280;3872;47.902;8.162;2023-11-22T05:45:01;92211.13;;;6.37;100.00
7660;BME280;3872;47.902;8.162;2023-11-22T05:47:29;92207.22;;;6.69;100.00
7660;BME280;3872;47.902;8.162;2023-11-22T05:49:57;92204.59;;;7.00;100.00
7660;BME280;3872;47.902;8.162;2023-11-22T05:52:24;92213.19;;;6.40;100.00
7660;BME280;3872;47.902;8.162;2023-11-22T05:54:50;92214.81;;;6.86;100.00
7660;BME280;3872;47.902;8.162;2023-11-22T05:57:17;92210.28;;;7.37;100.00
7660;BME280;3872;47.902;8.162;2023-11-22T05:59:45;92218.91;;;7.43;100.00
7660;BME280;3872;47.902;8.162;2023-11-22T06:02:11;92224.19;;;6.82;100.00
7660;BME280;3872;47.902;8.162;2023-11-22T06:04:39;92225.00;;;6.67;100.00
7660;BME280;3872;47.902;8.162;2023-11-22T06:07:06;92215.31;;;6.78;100.00
7660;BME280;3872;47.902;8.162;2023-11-22T06:09:33;92215.03;;;6.24;100.00
7660;BME280;3872;47.902;8.162;2023-11-22T06:12:00;92221.84;;;6.76;100.00
7660;BME280;3872;47.902;8.162;2023-11-22T06:14:26;92224.16;;;7.38;100.00
7660;BME280;3872;47.902;8.162;2023-11-22T06:16:53;92234.84;;;7.46;98.87
7660;BME280;3872;47.902;8.162;2023-11-22T06:19:19;92239.13;;;6.97;100.00
7660;BME280;3872;47.902;8.162;2023-11-22T06:21:46;92240.66;;;7.28;99.51
7660;BME280;3872;47.902;8.162;2023-11-22T06:24:14;92245.34;;;7.41;100.00
7660;BME280;3872;47.902;8.162;2023-11-22T06:26:42;92252.72;;;6.68;100.00
7660;BME280;3872;47.902;8.162;2023-11-22T06:29:08;92252.72;;;6.74;100.00
7660;BME280;3872;47.902;8.162;2023-11-22T06:31:35;92265.38;;;6.04;100.00
7660;BME280;3872;47.902;8.162;2023-11-22T06:34:01;92270.16;;;6.22;100.00
7660;BME280;3872;47.902;8.162;2023-11-22T06:36:28;92280.97;;;6.66;100.00
7660;BME280;3872;47.902;8.162;2023-11-22T06:38:56;92286.38;;;6.24;100.00
7660;BME280;3872;47.902;8.162;2023-11-22T06:41:24;92286.00;;;5.96;100.00
7660;BME280;3872;47.902;8.162;2023-11-22T06:43:51;92283.84;;;6.60;100.00
7660;BME280;3872;47.902;8.162;2023-11-22T06:46:18;92281.47;;;6.63;100.00
7660;BME280;3872;47.902;8.162;2023-11-22T06:48:44;92288.56;;;6.88;98.93
7660;BME280;3872;47.902;8.162;2023-11-22T06:51:13;92303.59;;;5.68;100.00
7660;BME280;3872;47.902;8.162;2023-11-22T06:53:40;92302.88;;;6.45;100.00
7660;BME280;3872;47.902;8.162;2023-11-22T06:56:07;92312.72;;;5.66;100.00
7660;BME280;3872;47.902;8.162;2023-11-22T06:58:35;92309.66;;;6.31;100.00
7660;BME280;3872;47.902;8.162;2023-11-22T07:01:01;92313.09;;;6.52;100.00
7660;BME280;3872;47.902;8.162;2023-11-22T07:03:28;92317.25;;;6.43;100.00
7660;BME280;3872;47.902;8.162;2023-11-22T07:05:54;92321.19;;;6.45;100.00
7660;BME280;3872;47.902;8.162;2023-11-22T07:08:22;92319.63;;;6.44;100.00
7660;BME280;3872;47.902;8.162;2023-11-22T07:10:51;92330.28;;;5.80;100.00
7660;BME280;3872;47.902;8.162;2023-11-22T07:13:18;92332.38;;;5.83;100.00
7660;BME280;3872;47.902;8.162;2023-11-22T07:15:45;92331.78;;;5.66;100.00
7660;BME280;3872;47.902;8.162;2023-11-22T07:18:13;92333.13;;;6.21;100.00
7660;BME280;3872;47.902;8.162;2023-11-22T07:20:41;92339.25;;;6.57;100.00
7660;BME280;3872;47.902;8.162;2023-11-22T07:23:08;92344.63;;;5.78;100.00
7660;BME280;3872;47.902;8.162;2023-11-22T07:25:38;92331.78;;;6.18;100.00
7660;BME280;3872;47.902;8.162;2023-11-22T07:28:05;92338.91;;;6.28;100.00
7660;BME280;3872;47.902;8.162;2023-11-22T07:30:31;92356.66;;;5.42;100.00
7660;BME280;3872;47.902;8.162;2023-11-22T07:33:00;92345.16;;;6.22;100.00
7660;BME280;3872;47.902;8.162;2023-11-22T07:35:27;92348.13;;;5.88;100.00
7660;BME280;3872;47.902;8.162;2023-11-22T07:37:54;92352.78;;;5.86;100.00
7660;BME280;3872;47.902;8.162;2023-11-22T07:40:20;92355.41;;;5.49;100.00
7660;BME280;3872;47.902;8.162;2023-11-22T07:42:48;92354.84;;;5.79;100.00
7660;BME280;3872;47.902;8.162;2023-11-22T07:45:14;92356.00;;;5.99;100.00
7660;BME280;3872;47.902;8.162;2023-11-22T07:47:42;92351.00;;;6.49;100.00
7660;BME280;3872;47.902;8.162;2023-11-22T07:50:10;92349.03;;;6.19;100.00
7660;BME280;3872;47.902;8.162;2023-11-22T07:52:37;92361.94;;;5.47;100.00
7660;BME280;3872;47.902;8.162;2023-11-22T07:55:05;92371.91;;;5.18;100.00
7660;BME280;3872;47.902;8.162;2023-11-22T07:57:33;92375.59;;;5.59;100.00
7660;BME280;3872;47.902;8.162;2023-11-22T08:00:00;92380.38;;;6.14;100.00
7660;BME280;3872;47.902;8.162;2023-11-22T08:02:37;92388.75;;;6.16;98.95
7660;BME280;3872;47.902;8.162;2023-11-22T08:05:04;92390.19;;;5.92;100.00
7660;BME280;3872;47.902;8.162;2023-11-22T08:07:35;92398.44;;;6.16;100.00
7660;BME280;3872;47.902;8.162;2023-11-22T08:10:04;92395.63;;;4.90;100.00
7660;BME280;3872;47.902;8.162;2023-11-22T08:12:35;92399.66;;;5.34;100.00
7660;BME280;3872;47.902;8.162;2023-11-22T08:15:02;92403.03;;;5.30;100.00
7660;BME280;3872;47.902;8.162;2023-11-22T08:17:29;92403.59;;;5.37;100.00
7660;BME280;3872;47.902;8.162;2023-11-22T08:19:58;92406.34;;;5.52;100.00
7660;BME280;3872;47.902;8.162;2023-11-22T08:22:25;92415.88;;;5.68;100.00
7660;BME280;3872;47.902;8.162;2023-11-22T08:24:55;92416.00;;;5.51;100.00
7660;BME280;3872;47.902;8.162;2023-11-22T08:27:22;92417.16;;;6.03;100.00
7660;BME280;3872;47.902;8.162;2023-11-22T08:29:49;92412.78;;;4.86;100.00
7660;BME280;3872;47.902;8.162;2023-11-22T08:32:17;92413.31;;;5.15;100.00
7660;BME280;3872;47.902;8.162;2023-11-22T08:34:47;92416.56;;;5.00;100.00
7660;BME280;3872;47.902;8.162;2023-11-22T08:37:13;92410.50;;;5.21;100.00
7660;BME280;3872;47.902;8.162;2023-11-22T08:39:40;92402.84;;;5.09;100.00
7660;BME280;3872;47.902;8.162;2023-11-22T08:42:08;92410.72;;;5.15;100.00
7660;BME280;3872;47.902;8.162;2023-11-22T08:44:36;92404.88;;;5.02;100.00
7660;BME280;3872;47.902;8.162;2023-11-22T08:47:03;92412.84;;;5.49;100.00
7660;BME280;3872;47.902;8.162;2023-11-22T08:49:30;92415.78;;;5.26;100.00
7660;BME280;3872;47.902;8.162;2023-11-22T08:51:57;92411.00;;;4.91;100.00
7660;BME280;3872;47.902;8.162;2023-11-22T08:54:24;92418.25;;;5.11;100.00
7660;BME280;3872;47.902;8.162;2023-11-22T08:56:54;92422.97;;;4.87;100.00
7660;BME280;3872;47.902;8.162;2023-11-22T08:59:24;92412.69;;;5.02;100.00
7660;BME280;3872;47.902;8.162;2023-11-22T09:01:50;92408.06;;;4.83;100.00
7660;BME280;3872;47.902;8.162;2023-11-22T09:04:16;92415.19;;;5.19;100.00
7660;BME280;3872;47.902;8.162;2023-11-22T09:06:44;92425.88;;;5.49;100.00
7660;BME280;3872;47.902;8.162;2023-11-22T09:09:12;92424.38;;;5.54;100.00
7660;BME280;3872;47.902;8.162;2023-11-22T09:11:40;92426.19;;;4.94;100.00
7660;BME280;3872;47.902;8.162;2023-11-22T09:14:07;92426.94;;;4.90;100.00
7660;BME280;3872;47.902;8.162;2023-11-22T09:16:37;92426.16;;;5.85;99.25
7660;BME280;3872;47.902;8.162;2023-11-22T09:19:04;92437.31;;;5.43;100.00
7660;BME280;3872;47.902;8.162;2023-11-22T09:21:31;92440.13;;;4.83;100.00
7660;BME280;3872;47.902;8.162;2023-11-22T09:23:58;92435.28;;;4.92;100.00
7660;BME280;3872;47.902;8.162;2023-11-22T09:26:25;92427.69;;;4.90;100.00
7660;BME280;3872;47.902;8.162;2023-11-22T09:28:51;92430.13;;;5.56;100.00
7660;BME280;3872;47.902;8.162;2023-11-22T09:31:19;92429.22;;;4.86;100.00
7660;BME280;3872;47.902;8.162;2023-11-22T09:33:47;92427.75;;;4.25;100.00
7660;BME280;3872;47.902;8.162;2023-11-22T09:36:15;92433.97;;;4.89;100.00
7660;BME280;3872;47.902;8.162;2023-11-22T09:38:43;92436.75;;;5.09;100.00
7660;BME280;3872;47.902;8.162;2023-11-22T09:41:10;92436.78;;;5.41;100.00
7660;BME280;3872;47.902;8.162;2023-11-22T09:43:36;92435.34;;;5.87;94.51
7660;BME280;3872;47.902;8.162;2023-11-22T09:46:05;92437.25;;;5.06;100.00
7660;BME280;3872;47.902;8.162;2023-11-22T09:48:35;92435.53;;;5.17;100.00
7660;BME280;3872;47.902;8.162;2023-11-22T09:51:08;92430.88;;;4.70;100.00
7660;BME280;3872;47.902;8.162;2023-11-22T09:53:40;92443.09;;;4.92;100.00
7660;BME280;3872;47.902;8.162;2023-11-22T09:56:08;92437.00;;;5.35;100.00
7660;BME280;3872;47.902;8.162;2023-11-22T09:58:37;92442.91;;;4.98;100.00
7660;BME280;3872;47.902;8.162;2023-11-22T10:01:06;92440.81;;;4.73;100.00
7660;BME280;3872;47.902;8.162;2023-11-22T10:03:33;92443.34;;;5.44;100.00
7660;BME280;3872;47.902;8.162;2023-11-22T10:06:01;92451.69;;;4.65;100.00
7660;BME280;3872;47.902;8.162;2023-11-22T10:08:31;92446.69;;;4.42;100.00
7660;BME280;3872;47.902;8.162;2023-11-22T10:10:58;92451.06;;;5.07;100.00
7660;BME280;3872;47.902;8.162;2023-11-22T10:13:26;92454.00;;;5.10;100.00
7660;BME280;3872;47.902;8.162;2023-11-22T10:15:53;92450.53;;;5.64;99.64
7660;BME280;3872;47.902;8.162;2023-11-22T10:18:20;92449.50;;;5.33;100.00
7660;BME280;3872;47.902;8.162;2023-11-22T10:20:48;92452.19;;;5.11;100.00
7660;BME280;3872;47.902;8.162;2023-11-22T10:23:16;92451.88;;;5.07;100.00
7660;BME280;3872;47.902;8.162;2023-11-22T10:25:47;92461.38;;;5.19;100.00
7660;BME280;3872;47.902;8.162;2023-11-22T10:28:15;92459.09;;;5.54;98.70
7660;BME280;3872;47.902;8.162;2023-11-22T10:30:43;92441.28;;;5.19;100.00
7660;BME280;3872;47.902;8.162;2023-11-22T10:33:10;92438.38;;;4.89;100.00
7660;BME280;3872;47.902;8.162;2023-11-22T10:35:39;92446.22;;;4.67;100.00
7660;BME280;3872;47.902;8.162;2023-11-22T10:38:07;92458.53;;;4.50;100.00
7660;BME280;3872;47.902;8.162;2023-11-22T10:40:35;92456.31;;;4.85;100.00
7660;BME280;3872;47.902;8.162;2023-11-22T10:43:04;92456.09;;;5.13;99.13
7660;BME280;3872;47.902;8.162;2023-11-22T10:45:32;92461.84;;;4.89;100.00
7660;BME280;3872;47.902;8.162;2023-11-22T10:48:00;92453.59;;;5.24;99.89
7660;BME280;3872;47.902;8.162;2023-11-22T10:50:27;92454.38;;;5.24;95.22
7660;BME280;3872;47.902;8.162;2023-11-22T10:52:56;92465.88;;;4.53;100.00
7660;BME280;3872;47.902;8.162;2023-11-22T10:55:26;92452.31;;;5.26;99.85
7660;BME280;3872;47.902;8.162;2023-11-22T10:57:55;92461.59;;;4.25;100.00
7660;BME280;3872;47.902;8.162;2023-11-22T11:00:24;92464.56;;;4.77;100.00
7660;BME280;3872;47.902;8.162;2023-11-22T11:02:58;92462.75;;;4.78;100.00
7660;BME280;3872;47.902;8.162;2023-11-22T11:05:28;92459.31;;;4.72;99.64
7660;BME280;3872;47.902;8.162;2023-11-22T11:08:00;92465.94;;;5.06;97.18
7660;BME280;3872;47.902;8.162;2023-11-22T11:10:31;92459.47;;;5.09;96.73
7660;BME280;3872;47.902;8.162;2023-11-22T11:12:59;92465.22;;;5.38;97.37
7660;BME280;3872;47.902;8.162;2023-11-22T11:15:27;92479.91;;;4.95;100.00
7660;BME280;3872;47.902;8.162;2023-11-22T11:17:55;92483.00;;;4.70;100.00
7660;BME280;3872;47.902;8.162;2023-11-22T11:20:22;92490.59;;;4.94;100.00
7660;BME280;3872;47.902;8.162;2023-11-22T11:22:49;92498.84;;;5.34;95.24
7660;BME280;3872;47.902;8.162;2023-11-22T11:25:17;92496.41;;;5.28;92.57
7660;BME280;3872;47.902;8.162;2023-11-22T11:27:45;92504.38;;;5.38;92.55
7660;BME280;3872;47.902;8.162;2023-11-22T11:33:26;92505.03;;;5.82;86.29
7660;BME280;3872;47.902;8.162;2023-11-22T11:35:52;92509.13;;;5.46;89.88
7660;BME280;3872;47.902;8.162;2023-11-22T11:38:28;92496.44;;;5.86;85.07
7660;BME280;3872;47.902;8.162;2023-11-22T11:41:06;92492.25;;;5.54;89.05
7660;BME280;3872;47.902;8.162;2023-11-22T11:43:40;92510.44;;;5.48;87.76
7660;BME280;3872;47.902;8.162;2023-11-22T11:46:07;92506.19;;;5.69;86.10
7660;BME280;3872;47.902;8.162;2023-11-22T11:48:34;92498.22;;;5.81;84.32
7660;BME280;3872;47.902;8.162;2023-11-22T11:51:01;92503.97;;;5.24;93.54
7660;BME280;3872;47.902;8.162;2023-11-22T11:53:28;92509.19;;;5.51;91.71
7660;BME280;3872;47.902;8.162;2023-11-22T11:55:56;92505.94;;;5.39;91.37
7660;BME280;3872;47.902;8.162;2023-11-22T11:58:23;92508.94;;;5.84;89.63
7660;BME280;3872;47.902;8.162;2023-11-22T12:00:51;92506.38;;;6.21;80.28
7660;BME280;3872;47.902;8.162;2023-11-22T12:03:18;92501.81;;;5.75;82.87
7660;BME280;3872;47.902;8.162;2023-11-22T12:05:47;92499.28;;;5.53;85.98
7660;BME280;3872;47.902;8.162;2023-11-22T12:08:15;92499.13;;;5.38;87.62
7660;BME280;3872;47.902;8.162;2023-11-22T12:10:42;92494.66;;;5.60;87.30
7660;BME280;3872;47.902;8.162;2023-11-22T12:13:09;92498.84;;;5.34;89.51
7660;BME280;3872;47.902;8.162;2023-11-22T12:15:36;92502.66;;;5.00;94.01
7660;BME280;3872;47.902;8.162;2023-11-22T12:18:02;92502.34;;;6.04;83.74
7660;BME280;3872;47.902;8.162;2023-11-22T12:20:29;92521.47;;;6.14;84.20
7660;BME280;3872;47.902;8.162;2023-11-22T12:22:58;92520.88;;;6.02;79.59
7660;BME280;3872;47.902;8.162;2023-11-22T12:25:26;92530.16;;;6.20;76.89
7660;BME280;3872;47.902;8.162;2023-11-22T12:27:54;92526.69;;;6.46;75.35
7660;BME280;3872;47.902;8.162;2023-11-22T12:30:33;92525.44;;;6.17;76.47
7660;BME280;3872;47.902;8.162;2023-11-22T12:33:01;92520.66;;;6.46;75.58
7660;BME280;3872;47.902;8.162;2023-11-22T12:35:30;92528.75;;;6.44;75.86
7660;BME280;3872;47.902;8.162;2023-11-22T12:37:59;92540.09;;;5.91;79.23
7660;BME280;3872;47.902;8.162;2023-11-22T12:40:28;92548.22;;;6.26;75.98
7660;BME280;3872;47.902;8.162;2023-11-22T12:42:57;92539.41;;;6.80;74.00
7660;BME280;3872;47.902;8.162;2023-11-22T12:45:25;92534.72;;;6.82;72.34
7660;BME280;3872;47.902;8.162;2023-11-22T12:47:54;92527.38;;;6.00;79.18
7660;BME280;3872;47.902;8.162;2023-11-22T12:50:30;92535.88;;;6.17;79.47
7660;BME280;3872;47.902;8.162;2023-11-22T12:52:57;92542.38;;;5.82;83.75
7660;BME280;3872;47.902;8.162;2023-11-22T12:55:25;92539.41;;;6.01;80.76
7660;BME280;3872;47.902;8.162;2023-11-22T12:57:56;92541.28;;;5.51;84.45
7660;BME280;3872;47.902;8.162;2023-11-22T13:00:24;92548.28;;;6.00;80.00
7660;BME280;3872;47.902;8.162;2023-11-22T13:02:51;92548.28;;;6.32;75.75
7660;BME280;3872;47.902;8.162;2023-11-22T13:05:18;92549.66;;;5.80;81.00
7660;BME280;3872;47.902;8.162;2023-11-22T13:07:44;92544.72;;;5.57;83.71
7660;BME280;3872;47.902;8.162;2023-11-22T13:10:11;92547.31;;;5.52;84.80
7660;BME280;3872;47.902;8.162;2023-11-22T13:12:43;92546.00;;;6.08;80.01
7660;BME280;3872;47.902;8.162;2023-11-22T13:15:11;92539.41;;;6.01;82.98
7660;BME280;3872;47.902;8.162;2023-11-22T13:17:38;92545.81;;;4.91;87.63
7660;BME280;3872;47.902;8.162;2023-11-22T13:20:06;92550.75;;;4.49;99.28
7660;BME280;3872;47.902;8.162;2023-11-22T13:22:39;92543.31;;;4.96;91.72
7660;BME280;3872;47.902;8.162;2023-11-22T13:25:06;92540.94;;;4.94;91.03
7660;BME280;3872;47.902;8.162;2023-11-22T13:27:33;92540.59;;;5.12;88.71
7660;BME280;3872;47.902;8.162;2023-11-22T13:30:01;92537.53;;;4.72;93.83